createdAt,value
2022-09-09T00:02:17.065Z,10.10
2022-09-09T00:05:02.355Z,10.80
2022-09-09T00:07:48.779Z,11.60
2022-09-09T00:10:35.258Z,12.30
2022-09-09T00:13:29.181Z,10.70
2022-09-09T00:16:21.061Z,10.40
2022-09-09T00:18:58.387Z,9.30
2022-09-09T00:21:36.239Z,9.40
2022-09-09T00:24:39.924Z,10.10
2022-09-09T00:27:48.637Z,9.90
2022-09-09T00:30:32.347Z,9.80
2022-09-09T00:33:14.690Z,10.30
2022-09-09T00:35:52.242Z,11.40
2022-09-09T00:38:42.445Z,9.80
2022-09-09T00:41:44.951Z,10.70
2022-09-09T00:44:38.897Z,9.70
2022-09-09T00:47:34.542Z,9.40
2022-09-09T00:50:27.805Z,8.30
2022-09-09T00:53:27.373Z,8.30
2022-09-09T00:56:26.225Z,8.30
2022-09-09T00:59:27.811Z,8.60
2022-09-09T01:01:57.051Z,8.80
2022-09-09T01:04:37.734Z,9.00
2022-09-09T01:07:20.090Z,10.10
2022-09-09T01:10:16.451Z,9.60
2022-09-09T01:12:50.081Z,9.40
2022-09-09T01:15:27.246Z,9.00
2022-09-09T01:18:13.687Z,8.70
2022-09-09T01:21:15.532Z,8.90
2022-09-09T01:24:21.010Z,9.70
2022-09-09T01:26:54.346Z,9.10
2022-09-09T01:29:25.109Z,9.80
2022-09-09T01:32:02.202Z,9.00
2022-09-09T01:34:39.946Z,9.90
2022-09-09T01:37:14.978Z,10.40
2022-09-09T01:39:46.274Z,9.50
2022-09-09T01:42:17.296Z,8.10
2022-09-09T01:44:45.553Z,10.10
2022-09-09T01:47:13.873Z,9.50
2022-09-09T01:49:42.471Z,10.00
2022-09-09T01:52:10.837Z,11.00
2022-09-09T01:54:40.117Z,9.70
2022-09-09T01:57:46.132Z,8.90
2022-09-09T02:00:17.906Z,8.80
2022-09-09T02:03:22.413Z,8.50
2022-09-09T02:06:16.621Z,8.20
2022-09-09T02:08:53.151Z,8.50
2022-09-09T02:11:26.962Z,8.70
2022-09-09T02:14:08.346Z,9.60
2022-09-09T02:16:50.940Z,9.30
2022-09-09T02:19:27.375Z,9.50
2022-09-09T02:21:59.296Z,10.00
2022-09-09T02:24:31.937Z,8.50
2022-09-09T02:27:04.968Z,9.10
2022-09-09T02:29:39.674Z,9.50
2022-09-09T02:32:17.386Z,9.60
2022-09-09T02:34:50.826Z,10.00
2022-09-09T02:37:26.270Z,9.20
2022-09-09T02:39:54.650Z,10.20
2022-09-09T02:42:23.523Z,9.30
2022-09-09T02:44:51.797Z,8.90
2022-09-09T02:47:30.363Z,8.90
2022-09-09T02:50:34.952Z,8.80
2022-09-09T02:53:18.501Z,8.80
2022-09-09T02:56:06.937Z,9.20
2022-09-09T02:58:35.308Z,9.10
2022-09-09T03:01:04.108Z,9.10
2022-09-09T03:03:33.478Z,8.90
2022-09-09T03:06:02.139Z,8.10
2022-09-09T03:08:30.394Z,9.00
2022-09-09T03:11:02.413Z,8.70
2022-09-09T03:13:30.792Z,9.70
2022-09-09T03:15:59.046Z,10.00
2022-09-09T03:18:29.803Z,9.20
2022-09-09T03:20:58.702Z,9.40
2022-09-09T03:23:27.103Z,9.40
2022-09-09T03:25:58.090Z,9.70
2022-09-09T03:28:32.050Z,10.50
2022-09-09T03:31:06.987Z,9.80
2022-09-09T03:33:38.258Z,9.60
2022-09-09T03:36:08.619Z,9.80
2022-09-09T03:38:37.401Z,8.40
2022-09-09T03:41:09.008Z,10.00
2022-09-09T03:43:37.502Z,9.10
2022-09-09T03:46:06.009Z,9.50
2022-09-09T03:48:34.470Z,8.00
2022-09-09T03:51:04.111Z,8.00
2022-09-09T03:53:32.852Z,9.40
2022-09-09T03:56:01.732Z,10.00
2022-09-09T03:58:30.189Z,10.10
2022-09-09T04:01:05.764Z,9.50
2022-09-09T04:03:34.160Z,11.30
2022-09-09T04:06:05.225Z,10.60
2022-09-09T04:08:34.051Z,10.80
2022-09-09T04:11:07.258Z,10.60
2022-09-09T04:13:40.231Z,9.50
2022-09-09T04:16:11.407Z,10.10
2022-09-09T04:18:40.567Z,10.40
2022-09-09T04:21:15.733Z,9.70
2022-09-09T04:23:44.133Z,11.00
2022-09-09T04:26:12.398Z,11.30
2022-09-09T04:28:40.651Z,11.60
2022-09-09T04:31:17.436Z,11.20
2022-09-09T04:33:45.892Z,11.20
2022-09-09T04:36:14.771Z,11.20
2022-09-09T04:38:43.123Z,11.50
2022-09-09T04:41:12.419Z,10.30
2022-09-09T04:43:40.824Z,11.30
2022-09-09T04:46:10.242Z,10.30
2022-09-09T04:48:38.628Z,11.00
2022-09-09T04:51:14.945Z,10.40
2022-09-09T04:53:43.279Z,11.40
2022-09-09T04:56:15.238Z,8.90
2022-09-09T04:58:44.107Z,9.20
2022-09-09T05:01:19.568Z,10.10
2022-09-09T05:03:48.877Z,10.30
2022-09-09T05:06:24.672Z,9.40
2022-09-09T05:08:53.931Z,10.70
2022-09-09T05:11:37.702Z,10.30
2022-09-09T05:14:06.117Z,10.50
2022-09-09T05:16:34.533Z,10.10
2022-09-09T05:19:04.412Z,11.20
2022-09-09T05:21:32.757Z,11.50
2022-09-09T05:24:03.827Z,12.10
2022-09-09T05:26:33.529Z,11.70
2022-09-09T05:29:02.304Z,11.90
2022-09-09T05:31:31.856Z,11.80
2022-09-09T05:34:00.514Z,11.70
2022-09-09T05:36:28.769Z,13.10
2022-09-09T05:38:57.112Z,10.80
2022-09-09T05:41:25.379Z,13.50
2022-09-09T05:43:53.770Z,11.00
2022-09-09T05:46:26.062Z,10.70
2022-09-09T05:48:55.161Z,10.10
2022-09-09T05:51:27.748Z,10.60
2022-09-09T05:54:02.192Z,11.80
2022-09-09T05:56:31.178Z,10.80
2022-09-09T05:59:01.342Z,10.80
2022-09-09T06:01:35.896Z,11.50
2022-09-09T06:04:04.875Z,10.00
2022-09-09T06:06:40.668Z,12.00
2022-09-09T06:09:11.409Z,11.50
2022-09-09T06:11:41.390Z,12.20
2022-09-09T06:14:10.432Z,11.30
2022-09-09T06:16:39.106Z,11.00
2022-09-09T06:19:07.507Z,11.60
2022-09-09T06:21:38.243Z,11.20
2022-09-09T06:24:08.447Z,10.40
2022-09-09T06:26:42.597Z,11.30
2022-09-09T06:29:11.356Z,10.70
2022-09-09T06:31:39.822Z,10.90
2022-09-09T06:34:10.006Z,10.40
2022-09-09T06:36:40.264Z,9.40
2022-09-09T06:39:14.837Z,9.90
2022-09-09T06:41:44.071Z,10.30
2022-09-09T06:44:12.944Z,10.90
2022-09-09T06:46:41.450Z,10.10
2022-09-09T06:49:10.774Z,10.70
2022-09-09T06:51:44.025Z,10.00
2022-09-09T06:54:13.405Z,9.00
2022-09-09T06:56:43.991Z,8.30
2022-09-09T06:59:13.301Z,9.90
2022-09-09T07:01:55.746Z,8.00
2022-09-09T07:04:24.801Z,7.20
2022-09-09T07:06:53.742Z,8.60
2022-09-09T07:09:22.710Z,8.00
2022-09-09T07:11:55.257Z,8.70
2022-09-09T07:14:23.681Z,8.60
2022-09-09T07:16:53.791Z,7.50
2022-09-09T07:19:24.840Z,7.30
2022-09-09T07:21:53.129Z,7.90
2022-09-09T07:24:21.569Z,8.10
2022-09-09T07:26:49.866Z,8.40
2022-09-09T07:29:20.839Z,8.20
2022-09-09T07:31:49.760Z,8.10
2022-09-09T07:34:18.293Z,7.10
2022-09-09T07:36:47.727Z,7.90
2022-09-09T07:39:16.154Z,7.20
2022-09-09T07:41:50.119Z,6.80
2022-09-09T07:44:23.850Z,7.10
2022-09-09T07:46:52.342Z,7.20
2022-09-09T07:49:27.408Z,7.70
2022-09-09T07:51:58.798Z,6.20
2022-09-09T07:54:27.229Z,6.70
2022-09-09T07:56:55.584Z,6.70
2022-09-09T07:59:25.081Z,6.60
2022-09-09T08:01:56.474Z,6.80
2022-09-09T08:04:27.171Z,7.70
2022-09-09T08:07:01.163Z,6.60
2022-09-09T08:09:30.596Z,6.50
2022-09-09T08:11:59.399Z,6.10
2022-09-09T08:14:28.046Z,6.50
2022-09-09T08:16:57.287Z,6.20
2022-09-09T08:19:25.726Z,5.90
2022-09-09T08:21:55.185Z,6.70
2022-09-09T08:24:24.195Z,5.40
2022-09-09T08:26:52.545Z,5.10
2022-09-09T08:29:21.147Z,5.20
2022-09-09T08:31:56.249Z,4.30
2022-09-09T08:34:28.041Z,4.50
2022-09-09T08:36:56.645Z,4.80
2022-09-09T08:39:25.298Z,4.80
2022-09-09T08:42:10.229Z,3.90
2022-09-09T08:45:01.959Z,2.90
2022-09-09T08:47:55.064Z,3.00
2022-09-09T08:50:41.451Z,2.60
2022-09-09T08:53:23.647Z,2.50
2022-09-09T08:56:00.439Z,2.50
2022-09-09T08:58:42.113Z,2.40
2022-09-09T09:01:10.510Z,1.80
2022-09-09T09:04:17.898Z,2.70
2022-09-09T09:07:10.380Z,1.80
2022-09-09T09:10:02.864Z,2.20
2022-09-09T09:12:44.012Z,2.60
2022-09-09T09:15:22.081Z,3.00
2022-09-09T09:17:51.619Z,2.60
2022-09-09T09:20:43.673Z,2.30
2022-09-09T09:23:23.482Z,2.60
2022-09-09T09:26:00.457Z,1.80
2022-09-09T09:28:33.743Z,1.00
2022-09-09T09:31:13.260Z,1.50
2022-09-09T09:33:41.963Z,1.60
2022-09-09T09:36:10.225Z,1.70
2022-09-09T09:41:41.012Z,1.60
2022-09-09T09:44:30.582Z,1.70
2022-09-09T09:47:21.693Z,1.70
2022-09-09T09:50:01.263Z,1.80
2022-09-09T09:52:35.766Z,1.20
2022-09-09T09:55:13.462Z,1.10
2022-09-09T09:57:41.988Z,2.30
2022-09-09T10:00:15.474Z,2.30
2022-09-09T10:02:46.862Z,1.50
2022-09-09T10:05:26.517Z,1.70
2022-09-09T10:08:20.319Z,2.10
2022-09-09T10:11:25.766Z,1.90
2022-09-09T10:14:21.928Z,2.10
2022-09-09T10:17:20.633Z,1.80
2022-09-09T10:20:21.487Z,1.50
2022-09-09T10:22:58.054Z,1.00
2022-09-09T10:25:57.208Z,1.40
2022-09-09T10:28:55.593Z,0.80
2022-09-09T10:32:04.183Z,0.80
2022-09-09T10:34:59.164Z,1.00
2022-09-09T10:38:05.473Z,1.00
2022-09-09T10:41:01.434Z,0.90
2022-09-09T10:43:36.714Z,0.80
2022-09-09T10:46:14.126Z,1.20
2022-09-09T10:49:01.989Z,0.90
2022-09-09T10:51:52.136Z,0.90
2022-09-09T10:54:44.414Z,1.10
2022-09-09T10:57:33.071Z,1.20
2022-09-09T11:00:18.034Z,1.20
2022-09-09T11:02:57.169Z,1.00
2022-09-09T11:05:57.857Z,1.30
2022-09-09T11:08:34.641Z,1.00
2022-09-09T11:11:18.942Z,1.30
2022-09-09T11:13:55.432Z,1.10
2022-09-09T11:16:32.610Z,1.10
2022-09-09T11:19:19.251Z,1.10
2022-09-09T11:21:53.149Z,1.00
2022-09-09T11:24:45.365Z,0.90
2022-09-09T11:27:45.103Z,0.90
2022-09-09T11:30:44.160Z,0.90
2022-09-09T11:33:35.995Z,0.90
2022-09-09T11:36:51.066Z,1.20
2022-09-09T11:39:31.728Z,1.30
2022-09-09T11:42:18.799Z,1.00
2022-09-09T11:44:47.785Z,1.10
2022-09-09T11:47:31.608Z,0.90
2022-09-09T11:50:16.103Z,1.90
2022-09-09T11:52:47.559Z,1.60
2022-09-09T11:55:34.119Z,1.00
2022-09-09T11:58:17.109Z,1.20
2022-09-09T12:00:49.035Z,1.00
2022-09-09T12:03:56.741Z,1.10
2022-09-09T12:06:46.510Z,1.10
2022-09-09T12:10:00.646Z,0.90
2022-09-09T12:12:33.510Z,1.20
2022-09-09T12:15:31.209Z,1.20
2022-09-09T12:18:03.363Z,0.90
2022-09-09T12:20:36.137Z,0.90
2022-09-09T12:23:39.688Z,1.00
2022-09-09T12:26:52.138Z,1.20
2022-09-09T12:29:20.305Z,1.00
2022-09-09T12:32:00.175Z,0.90
2022-09-09T12:34:52.618Z,0.90
2022-09-09T12:37:40.297Z,0.90
2022-09-09T12:40:38.201Z,2.30
2022-09-09T12:43:25.159Z,1.00
2022-09-09T12:46:01.629Z,1.20
2022-09-09T12:48:37.816Z,1.20
2022-09-09T12:51:18.890Z,1.60
2022-09-09T12:53:47.652Z,0.90
2022-09-09T12:56:23.791Z,1.10
2022-09-09T12:58:53.668Z,1.00
2022-09-09T13:01:34.537Z,1.30
2022-09-09T13:04:03.491Z,1.60
2022-09-09T13:06:34.221Z,1.20
2022-09-09T13:09:04.912Z,0.90
2022-09-09T13:11:39.272Z,1.20
2022-09-09T13:14:07.652Z,1.30
2022-09-09T13:16:42.098Z,1.20
2022-09-09T13:19:17.540Z,1.10
2022-09-09T13:21:45.872Z,0.80
2022-09-09T13:24:35.846Z,1.20
2022-09-09T13:27:35.313Z,1.30
2022-09-09T13:30:31.173Z,1.20
2022-09-09T13:33:15.625Z,1.30
2022-09-09T13:35:54.221Z,1.60
2022-09-09T13:38:27.506Z,1.10
2022-09-09T13:41:07.199Z,1.50
2022-09-09T13:43:44.562Z,1.50
2022-09-09T13:46:36.054Z,1.10
2022-09-09T13:49:22.991Z,0.80
2022-09-09T13:51:54.583Z,1.10
2022-09-09T13:54:23.967Z,1.40
2022-09-09T13:56:52.400Z,1.00
2022-09-09T13:59:21.306Z,1.10
2022-09-09T14:01:53.470Z,1.30
2022-09-09T14:04:22.113Z,1.20
2022-09-09T14:06:52.770Z,1.20
2022-09-09T14:09:21.183Z,1.10
2022-09-09T14:11:49.489Z,1.20
2022-09-09T14:14:17.830Z,1.10
2022-09-09T14:16:46.399Z,1.00
2022-09-09T14:19:14.909Z,1.60
2022-09-09T14:21:43.766Z,1.00
2022-09-09T14:24:13.404Z,1.50
2022-09-09T14:26:42.073Z,0.90
2022-09-09T14:29:10.359Z,1.30
2022-09-09T14:31:38.594Z,1.20
2022-09-09T14:34:07.122Z,1.40
2022-09-09T14:36:35.471Z,1.10
2022-09-09T14:39:05.583Z,1.00
2022-09-09T14:41:34.046Z,1.60
2022-09-09T14:44:02.515Z,1.20
2022-09-09T14:46:30.924Z,1.20
2022-09-09T14:49:00.373Z,1.00
2022-09-09T14:51:29.313Z,1.60
2022-09-09T14:54:00.272Z,1.40
2022-09-09T14:56:31.794Z,1.20
2022-09-09T14:59:01.913Z,0.90
2022-09-09T15:01:32.776Z,1.10
2022-09-09T15:04:05.309Z,1.40
2022-09-09T15:06:39.470Z,1.40
2022-09-09T15:11:38.898Z,1.10
2022-09-09T15:14:10.559Z,1.80
2022-09-09T15:16:40.950Z,1.70
2022-09-09T15:19:10.264Z,1.70
2022-09-09T15:21:39.548Z,1.80
2022-09-09T15:24:09.444Z,1.00
2022-09-09T15:26:39.740Z,1.10
2022-09-09T15:29:09.548Z,1.40
2022-09-09T15:31:38.099Z,1.00
2022-09-09T15:34:09.891Z,1.30
2022-09-09T15:36:41.941Z,1.40
2022-09-09T15:39:13.844Z,1.30
2022-09-09T15:41:47.897Z,1.30
2022-09-09T15:44:16.848Z,1.30
2022-09-09T15:46:47.718Z,1.20
2022-09-09T15:49:26.716Z,1.00
2022-09-09T15:52:04.422Z,0.90
2022-09-09T15:54:37.213Z,1.40
2022-09-09T15:57:09.350Z,1.00
2022-09-09T15:59:38.235Z,1.00
2022-09-09T16:02:07.815Z,1.10
2022-09-09T16:04:36.223Z,1.30
2022-09-09T16:07:06.764Z,1.40
2022-09-09T16:09:36.293Z,1.20
2022-09-09T16:12:12.923Z,0.90
2022-09-09T16:14:41.830Z,1.30
2022-09-09T16:17:10.151Z,1.60
2022-09-09T16:19:38.610Z,1.30
2022-09-09T16:22:07.760Z,1.40
2022-09-09T16:24:36.363Z,1.20
2022-09-09T16:27:05.168Z,1.30
2022-09-09T16:29:33.930Z,1.00
2022-09-09T16:32:04.190Z,1.30
2022-09-09T16:34:34.715Z,1.10
2022-09-09T16:37:03.588Z,0.90
2022-09-09T16:39:32.316Z,1.50
2022-09-09T16:42:00.889Z,1.60
2022-09-09T16:44:39.190Z,1.80
2022-09-09T16:47:17.351Z,1.30
2022-09-09T16:49:45.882Z,1.30
2022-09-09T16:52:18.403Z,1.30
2022-09-09T16:54:49.032Z,1.70
2022-09-09T16:57:17.268Z,2.00
2022-09-09T16:59:45.716Z,2.90
2022-09-09T17:02:14.175Z,2.50
2022-09-09T17:04:42.871Z,2.50
2022-09-09T17:07:11.524Z,2.00
2022-09-09T17:09:39.831Z,2.10
2022-09-09T17:12:09.465Z,2.20
2022-09-09T17:14:38.680Z,1.80
2022-09-09T17:17:30.194Z,2.10
2022-09-09T17:20:15.840Z,2.70
2022-09-09T17:22:56.585Z,2.30
2022-09-09T17:25:57.693Z,2.80
2022-09-09T17:28:28.414Z,2.90
2022-09-09T17:30:56.738Z,2.60
2022-09-09T17:33:27.395Z,2.40
2022-09-09T17:36:19.540Z,3.00
2022-09-09T17:38:51.518Z,2.60
2022-09-09T17:41:36.062Z,3.10
2022-09-09T17:44:22.170Z,3.00
2022-09-09T17:46:51.117Z,3.00
2022-09-09T17:49:19.652Z,2.20
2022-09-09T17:51:48.795Z,2.30
2022-09-09T17:54:21.748Z,1.80
2022-09-09T17:56:50.844Z,2.10
2022-09-09T17:59:19.560Z,2.30
2022-09-09T18:01:54.508Z,2.50
2022-09-09T18:07:26.589Z,3.50
2022-09-09T18:09:54.948Z,3.10
2022-09-09T18:12:23.444Z,2.30
2022-09-09T18:14:52.458Z,2.20
2022-09-09T18:17:20.784Z,2.30
2022-09-09T18:19:52.116Z,2.10
2022-09-09T18:22:20.603Z,2.10
2022-09-09T18:24:50.332Z,2.40
2022-09-09T18:27:20.411Z,2.10
2022-09-09T18:29:50.548Z,3.00
2022-09-09T18:32:20.044Z,2.60
2022-09-09T18:34:51.588Z,2.40
2022-09-09T18:40:19.796Z,2.50
2022-09-09T18:42:49.619Z,2.60
2022-09-09T18:45:18.597Z,3.40
2022-09-09T18:47:48.984Z,1.90
2022-09-09T18:50:17.382Z,2.00
2022-09-09T18:52:45.823Z,2.70
2022-09-09T18:55:14.543Z,2.30
2022-09-09T18:57:43.357Z,2.90
2022-09-09T19:00:12.349Z,2.40
2022-09-09T19:02:40.684Z,2.50
2022-09-09T19:05:10.009Z,2.60
2022-09-09T19:07:42.976Z,2.40
2022-09-09T19:10:11.624Z,2.60
2022-09-09T19:12:41.423Z,2.80
2022-09-09T19:15:10.438Z,3.30
2022-09-09T19:17:38.809Z,5.20
2022-09-09T19:20:09.217Z,7.10
2022-09-09T19:22:37.845Z,6.30
2022-09-09T19:25:07.089Z,6.10
2022-09-09T19:27:35.445Z,5.50
2022-09-09T19:30:04.272Z,6.10
2022-09-09T19:35:21.098Z,5.70
2022-09-09T19:37:49.357Z,4.40
2022-09-09T19:40:17.776Z,4.30
2022-09-09T19:42:46.365Z,4.30
2022-09-09T19:45:14.695Z,4.40
2022-09-09T19:47:44.857Z,4.50
2022-09-09T19:50:13.116Z,4.20
2022-09-09T19:52:41.518Z,3.80
2022-09-09T19:55:10.914Z,3.30
2022-09-09T19:57:40.138Z,4.10
2022-09-09T20:00:10.224Z,3.70
2022-09-09T20:02:39.757Z,4.20
2022-09-09T20:05:09.051Z,3.70
2022-09-09T20:07:37.466Z,3.50
2022-09-09T20:10:06.869Z,2.70
2022-09-09T20:12:36.597Z,2.70
2022-09-09T20:15:05.639Z,2.70
2022-09-09T20:17:33.942Z,3.10
2022-09-09T20:20:04.022Z,3.20
2022-09-09T20:22:33.355Z,2.90
2022-09-09T20:25:03.019Z,3.00
2022-09-09T20:27:31.874Z,2.60
2022-09-09T20:30:00.355Z,3.00
2022-09-09T20:32:29.395Z,2.70
2022-09-09T20:34:59.244Z,2.70
2022-09-09T20:37:27.438Z,4.00
2022-09-09T20:39:55.897Z,4.00
2022-09-09T20:42:24.953Z,4.10
2022-09-09T20:44:53.287Z,3.60
2022-09-09T20:47:21.560Z,3.30
2022-09-09T20:49:49.897Z,3.00
2022-09-09T20:52:20.848Z,3.00
2022-09-09T20:54:49.535Z,4.60
2022-09-09T20:57:29.057Z,3.70
2022-09-09T20:59:59.891Z,4.50
2022-09-09T21:02:33.250Z,5.60
2022-09-09T21:05:02.136Z,5.90
2022-09-09T21:07:30.532Z,2.90
2022-09-09T21:10:02.368Z,2.70
2022-09-09T21:12:31.850Z,2.80
2022-09-09T21:15:04.815Z,2.10
2022-09-09T21:17:35.362Z,2.20
2022-09-09T21:20:06.742Z,3.00
2022-09-09T21:22:36.100Z,3.60
2022-09-09T21:25:07.200Z,2.20
2022-09-09T21:27:37.463Z,2.60
2022-09-09T21:30:08.223Z,3.00
2022-09-09T21:32:37.959Z,2.60
2022-09-09T21:35:08.375Z,2.50
2022-09-09T21:37:42.207Z,2.10
2022-09-09T21:40:18.588Z,2.20
2022-09-09T21:42:55.437Z,2.20
2022-09-09T21:45:30.981Z,1.80
2022-09-09T21:48:01.428Z,1.90
2022-09-09T21:50:29.830Z,2.20
2022-09-09T21:52:58.108Z,2.10
2022-09-09T21:55:26.363Z,1.70
2022-09-09T21:57:55.106Z,2.40
2022-09-09T22:00:24.347Z,2.00
2022-09-09T22:02:53.025Z,2.00
2022-09-09T22:05:21.703Z,1.50
2022-09-09T22:07:49.961Z,1.70
2022-09-09T22:10:21.131Z,1.90
2022-09-09T22:12:50.150Z,1.40
2022-09-09T22:15:18.585Z,1.90
2022-09-09T22:17:46.875Z,2.20
2022-09-09T22:20:16.077Z,1.50
2022-09-09T22:22:44.526Z,1.50
2022-09-09T22:25:13.276Z,2.30
2022-09-09T22:27:41.562Z,1.70
2022-09-09T22:30:10.738Z,1.70
2022-09-09T22:32:39.103Z,1.50
2022-09-09T22:35:09.148Z,1.70
2022-09-09T22:37:37.704Z,1.90
2022-09-09T22:40:08.873Z,2.80
2022-09-09T22:42:37.431Z,2.10
2022-09-09T22:45:06.587Z,3.00
2022-09-09T22:47:35.210Z,2.30
2022-09-09T22:50:04.911Z,2.00
2022-09-09T22:52:33.731Z,2.70
2022-09-09T22:55:02.196Z,2.40
2022-09-09T22:57:31.194Z,3.10
2022-09-09T22:59:59.467Z,1.60
2022-09-09T23:02:28.534Z,1.80
2022-09-09T23:04:59.610Z,1.80
2022-09-09T23:07:27.855Z,2.00
2022-09-09T23:09:56.133Z,2.10
2022-09-09T23:12:25.563Z,1.70
2022-09-09T23:14:56.961Z,2.00
2022-09-09T23:17:26.332Z,2.10
2022-09-09T23:19:56.386Z,1.40
2022-09-09T23:22:25.433Z,1.70
2022-09-09T23:24:54.136Z,1.50
2022-09-09T23:27:22.421Z,1.80
2022-09-09T23:29:51.791Z,1.30
2022-09-09T23:32:20.119Z,1.60
2022-09-09T23:34:49.397Z,1.50
2022-09-09T23:37:19.110Z,1.40
2022-09-09T23:39:48.659Z,1.40
2022-09-09T23:42:16.954Z,1.40
2022-09-09T23:44:47.604Z,2.20
2022-09-09T23:47:15.890Z,1.60
2022-09-09T23:49:44.485Z,1.70
2022-09-09T23:52:13.790Z,2.30
2022-09-09T23:54:42.071Z,2.10
2022-09-09T23:57:12.126Z,1.50
2022-09-09T23:59:40.403Z,2.60
